sensor_id;sensor_type;location;lat;lon;timestamp;P1;durP1;ratioP1;P2;durP2;ratioP2
14040;SDS011;7095;51.388;6.196;2022-10-24T00:01:51;12.90;;;3.47;;
14040;SDS011;7095;51.388;6.196;2022-10-24T00:04:20;10.70;;;3.20;;
14040;SDS011;7095;51.388;6.196;2022-10-24T00:06:48;11.43;;;3.40;;
14040;SDS011;7095;51.388;6.196;2022-10-24T00:09:17;8.43;;;3.77;;
14040;SDS011;7095;51.388;6.196;2022-10-24T00:11:46;6.10;;;2.90;;
14040;SDS011;7095;51.388;6.196;2022-10-24T00:14:17;8.17;;;3.10;;
14040;SDS011;7095;51.388;6.196;2022-10-24T00:16:45;8.50;;;3.07;;
14040;SDS011;7095;51.388;6.196;2022-10-24T00:19:14;13.97;;;3.23;;
14040;SDS011;7095;51.388;6.196;2022-10-24T00:21:42;10.07;;;3.40;;
14040;SDS011;7095;51.388;6.196;2022-10-24T00:24:11;7.97;;;3.23;;
14040;SDS011;7095;51.388;6.196;2022-10-24T00:26:40;8.93;;;3.33;;
14040;SDS011;7095;51.388;6.196;2022-10-24T00:29:09;8.50;;;2.60;;
14040;SDS011;7095;51.388;6.196;2022-10-24T00:31:39;9.93;;;3.47;;
14040;SDS011;7095;51.388;6.196;2022-10-24T00:34:07;7.23;;;3.03;;
14040;SDS011;7095;51.388;6.196;2022-10-24T00:36:37;9.67;;;3.07;;
14040;SDS011;7095;51.388;6.196;2022-10-24T00:39:10;7.90;;;3.10;;
14040;SDS011;7095;51.388;6.196;2022-10-24T00:41:39;19.60;;;3.43;;
14040;SDS011;7095;51.388;6.196;2022-10-24T00:44:17;7.90;;;3.37;;
14040;SDS011;7095;51.388;6.196;2022-10-24T00:46:50;4.17;;;3.03;;
14040;SDS011;7095;51.388;6.196;2022-10-24T00:49:22;9.30;;;3.47;;
14040;SDS011;7095;51.388;6.196;2022-10-24T00:51:58;11.30;;;3.30;;
14040;SDS011;7095;51.388;6.196;2022-10-24T00:54:29;11.07;;;2.80;;
14040;SDS011;7095;51.388;6.196;2022-10-24T00:57:01;7.20;;;3.10;;
14040;SDS011;7095;51.388;6.196;2022-10-24T00:59:33;5.30;;;3.33;;
14040;SDS011;7095;51.388;6.196;2022-10-24T01:02:04;12.40;;;3.57;;
14040;SDS011;7095;51.388;6.196;2022-10-24T01:04:32;10.47;;;3.73;;
14040;SDS011;7095;51.388;6.196;2022-10-24T01:07:04;8.37;;;3.40;;
14040;SDS011;7095;51.388;6.196;2022-10-24T01:09:45;8.57;;;3.30;;
14040;SDS011;7095;51.388;6.196;2022-10-24T01:12:28;4.80;;;2.50;;
14040;SDS011;7095;51.388;6.196;2022-10-24T01:15:04;7.40;;;3.03;;
14040;SDS011;7095;51.388;6.196;2022-10-24T01:17:47;6.03;;;2.63;;
14040;SDS011;7095;51.388;6.196;2022-10-24T01:20:34;5.53;;;2.17;;
14040;SDS011;7095;51.388;6.196;2022-10-24T01:23:21;7.63;;;2.77;;
14040;SDS011;7095;51.388;6.196;2022-10-24T01:26:38;6.87;;;2.20;;
14040;SDS011;7095;51.388;6.196;2022-10-24T01:32:15;10.00;;;2.70;;
14040;SDS011;7095;51.388;6.196;2022-10-24T01:34:51;5.20;;;2.20;;
14040;SDS011;7095;51.388;6.196;2022-10-24T01:37:24;8.47;;;2.20;;
14040;SDS011;7095;51.388;6.196;2022-10-24T01:39:59;8.63;;;2.50;;
14040;SDS011;7095;51.388;6.196;2022-10-24T01:42:32;4.17;;;2.07;;
14040;SDS011;7095;51.388;6.196;2022-10-24T01:45:07;5.80;;;1.93;;
14040;SDS011;7095;51.388;6.196;2022-10-24T01:47:40;8.97;;;2.27;;
14040;SDS011;7095;51.388;6.196;2022-10-24T01:50:13;11.23;;;2.00;;
14040;SDS011;7095;51.388;6.196;2022-10-24T01:52:46;4.40;;;2.17;;
14040;SDS011;7095;51.388;6.196;2022-10-24T01:55:16;10.17;;;2.40;;
14040;SDS011;7095;51.388;6.196;2022-10-24T01:57:45;8.23;;;2.70;;
14040;SDS011;7095;51.388;6.196;2022-10-24T02:00:16;6.00;;;1.97;;
14040;SDS011;7095;51.388;6.196;2022-10-24T02:02:48;8.63;;;2.10;;
14040;SDS011;7095;51.388;6.196;2022-10-24T02:05:21;5.63;;;2.30;;
14040;SDS011;7095;51.388;6.196;2022-10-24T02:07:53;6.73;;;2.43;;
14040;SDS011;7095;51.388;6.196;2022-10-24T02:10:25;5.77;;;2.17;;
14040;SDS011;7095;51.388;6.196;2022-10-24T02:12:58;3.27;;;2.17;;
14040;SDS011;7095;51.388;6.196;2022-10-24T02:15:32;7.40;;;2.10;;
14040;SDS011;7095;51.388;6.196;2022-10-24T02:18:05;4.80;;;2.33;;
14040;SDS011;7095;51.388;6.196;2022-10-24T02:20:35;6.80;;;2.20;;
14040;SDS011;7095;51.388;6.196;2022-10-24T02:23:09;5.40;;;2.10;;
14040;SDS011;7095;51.388;6.196;2022-10-24T02:25:45;5.03;;;1.70;;
14040;SDS011;7095;51.388;6.196;2022-10-24T02:28:18;9.63;;;2.53;;
14040;SDS011;7095;51.388;6.196;2022-10-24T02:30:51;8.20;;;2.60;;
14040;SDS011;7095;51.388;6.196;2022-10-24T02:33:24;8.57;;;2.50;;
14040;SDS011;7095;51.388;6.196;2022-10-24T02:35:55;12.20;;;2.67;;
14040;SDS011;7095;51.388;6.196;2022-10-24T02:38:25;6.50;;;2.50;;
14040;SDS011;7095;51.388;6.196;2022-10-24T02:40:57;7.10;;;2.30;;
14040;SDS011;7095;51.388;6.196;2022-10-24T02:43:29;4.63;;;2.33;;
14040;SDS011;7095;51.388;6.196;2022-10-24T02:46:01;12.93;;;3.17;;
14040;SDS011;7095;51.388;6.196;2022-10-24T02:48:32;3.17;;;2.00;;
14040;SDS011;7095;51.388;6.196;2022-10-24T02:51:03;4.17;;;2.23;;
14040;SDS011;7095;51.388;6.196;2022-10-24T02:53:34;11.30;;;2.37;;
14040;SDS011;7095;51.388;6.196;2022-10-24T02:56:03;7.00;;;2.50;;
14040;SDS011;7095;51.388;6.196;2022-10-24T02:58:32;5.97;;;2.23;;
14040;SDS011;7095;51.388;6.196;2022-10-24T03:01:02;7.77;;;1.87;;
14040;SDS011;7095;51.388;6.196;2022-10-24T03:03:30;3.80;;;1.63;;
14040;SDS011;7095;51.388;6.196;2022-10-24T03:05:59;7.67;;;2.10;;
14040;SDS011;7095;51.388;6.196;2022-10-24T03:08:27;5.33;;;2.00;;
14040;SDS011;7095;51.388;6.196;2022-10-24T03:10:56;5.93;;;1.73;;
14040;SDS011;7095;51.388;6.196;2022-10-24T03:13:24;9.37;;;1.93;;
14040;SDS011;7095;51.388;6.196;2022-10-24T03:15:53;5.40;;;1.70;;
14040;SDS011;7095;51.388;6.196;2022-10-24T03:18:23;6.57;;;2.20;;
14040;SDS011;7095;51.388;6.196;2022-10-24T03:20:51;4.97;;;2.07;;
14040;SDS011;7095;51.388;6.196;2022-10-24T03:23:20;8.93;;;1.90;;
14040;SDS011;7095;51.388;6.196;2022-10-24T03:25:48;4.63;;;1.90;;
14040;SDS011;7095;51.388;6.196;2022-10-24T03:28:17;3.03;;;1.40;;
14040;SDS011;7095;51.388;6.196;2022-10-24T03:30:45;3.43;;;1.87;;
14040;SDS011;7095;51.388;6.196;2022-10-24T03:33:14;7.53;;;1.80;;
14040;SDS011;7095;51.388;6.196;2022-10-24T03:35:44;7.40;;;1.90;;
14040;SDS011;7095;51.388;6.196;2022-10-24T03:38:13;6.23;;;1.87;;
14040;SDS011;7095;51.388;6.196;2022-10-24T03:40:41;6.93;;;2.60;;
14040;SDS011;7095;51.388;6.196;2022-10-24T03:43:15;8.20;;;2.20;;
14040;SDS011;7095;51.388;6.196;2022-10-24T03:45:44;7.93;;;2.07;;
14040;SDS011;7095;51.388;6.196;2022-10-24T03:48:13;3.53;;;1.33;;
14040;SDS011;7095;51.388;6.196;2022-10-24T03:50:43;6.40;;;2.50;;
14040;SDS011;7095;51.388;6.196;2022-10-24T03:53:11;6.17;;;1.73;;
14040;SDS011;7095;51.388;6.196;2022-10-24T03:55:40;7.40;;;2.03;;
14040;SDS011;7095;51.388;6.196;2022-10-24T03:58:09;5.90;;;1.70;;
14040;SDS011;7095;51.388;6.196;2022-10-24T04:00:37;2.50;;;1.50;;
14040;SDS011;7095;51.388;6.196;2022-10-24T04:03:06;9.37;;;2.00;;
14040;SDS011;7095;51.388;6.196;2022-10-24T04:05:35;7.50;;;1.73;;
14040;SDS011;7095;51.388;6.196;2022-10-24T04:08:06;5.87;;;1.90;;
14040;SDS011;7095;51.388;6.196;2022-10-24T04:10:34;3.70;;;1.33;;
14040;SDS011;7095;51.388;6.196;2022-10-24T04:13:03;4.80;;;1.70;;
14040;SDS011;7095;51.388;6.196;2022-10-24T04:15:32;6.83;;;1.63;;
14040;SDS011;7095;51.388;6.196;2022-10-24T04:18:00;5.70;;;1.80;;
14040;SDS011;7095;51.388;6.196;2022-10-24T04:20:28;4.80;;;1.90;;
14040;SDS011;7095;51.388;6.196;2022-10-24T04:22:57;7.77;;;2.10;;
14040;SDS011;7095;51.388;6.196;2022-10-24T04:25:31;3.43;;;1.77;;
14040;SDS011;7095;51.388;6.196;2022-10-24T04:27:59;4.10;;;1.90;;
14040;SDS011;7095;51.388;6.196;2022-10-24T04:30:28;3.90;;;1.60;;
14040;SDS011;7095;51.388;6.196;2022-10-24T04:32:57;7.60;;;1.73;;
14040;SDS011;7095;51.388;6.196;2022-10-24T04:35:25;3.20;;;1.73;;
14040;SDS011;7095;51.388;6.196;2022-10-24T04:37:54;9.13;;;1.80;;
14040;SDS011;7095;51.388;6.196;2022-10-24T04:40:22;8.93;;;2.13;;
14040;SDS011;7095;51.388;6.196;2022-10-24T04:42:52;8.43;;;1.63;;
14040;SDS011;7095;51.388;6.196;2022-10-24T04:45:20;6.77;;;1.53;;
14040;SDS011;7095;51.388;6.196;2022-10-24T04:47:49;4.00;;;1.93;;
14040;SDS011;7095;51.388;6.196;2022-10-24T04:50:17;11.03;;;2.20;;
14040;SDS011;7095;51.388;6.196;2022-10-24T04:52:46;6.30;;;1.97;;
14040;SDS011;7095;51.388;6.196;2022-10-24T04:55:15;9.50;;;1.90;;
14040;SDS011;7095;51.388;6.196;2022-10-24T04:57:44;10.60;;;2.00;;
14040;SDS011;7095;51.388;6.196;2022-10-24T05:00:15;7.30;;;1.93;;
14040;SDS011;7095;51.388;6.196;2022-10-24T05:02:43;3.70;;;1.37;;
14040;SDS011;7095;51.388;6.196;2022-10-24T05:05:12;6.87;;;2.30;;
14040;SDS011;7095;51.388;6.196;2022-10-24T05:07:42;7.60;;;1.93;;
14040;SDS011;7095;51.388;6.196;2022-10-24T05:10:12;8.57;;;1.97;;
14040;SDS011;7095;51.388;6.196;2022-10-24T05:12:41;6.43;;;1.90;;
14040;SDS011;7095;51.388;6.196;2022-10-24T05:15:10;8.37;;;2.23;;
14040;SDS011;7095;51.388;6.196;2022-10-24T05:17:41;8.37;;;2.47;;
14040;SDS011;7095;51.388;6.196;2022-10-24T05:20:10;9.97;;;2.50;;
14040;SDS011;7095;51.388;6.196;2022-10-24T05:22:38;7.00;;;1.80;;
14040;SDS011;7095;51.388;6.196;2022-10-24T05:25:07;7.87;;;1.90;;
14040;SDS011;7095;51.388;6.196;2022-10-24T05:27:42;5.87;;;2.00;;
14040;SDS011;7095;51.388;6.196;2022-10-24T05:30:11;5.33;;;1.40;;
14040;SDS011;7095;51.388;6.196;2022-10-24T05:32:41;7.23;;;2.23;;
14040;SDS011;7095;51.388;6.196;2022-10-24T05:35:10;5.50;;;1.63;;
14040;SDS011;7095;51.388;6.196;2022-10-24T05:37:39;8.00;;;2.03;;
14040;SDS011;7095;51.388;6.196;2022-10-24T05:40:10;7.53;;;1.70;;
14040;SDS011;7095;51.388;6.196;2022-10-24T05:42:39;4.90;;;1.87;;
14040;SDS011;7095;51.388;6.196;2022-10-24T05:45:09;7.10;;;2.13;;
14040;SDS011;7095;51.388;6.196;2022-10-24T05:47:38;8.00;;;2.03;;
14040;SDS011;7095;51.388;6.196;2022-10-24T05:50:08;10.27;;;2.73;;
14040;SDS011;7095;51.388;6.196;2022-10-24T05:52:37;9.30;;;2.70;;
14040;SDS011;7095;51.388;6.196;2022-10-24T05:55:13;8.13;;;2.13;;
14040;SDS011;7095;51.388;6.196;2022-10-24T05:57:43;6.30;;;1.70;;
14040;SDS011;7095;51.388;6.196;2022-10-24T06:00:13;11.37;;;2.50;;
14040;SDS011;7095;51.388;6.196;2022-10-24T06:02:43;6.47;;;2.00;;
14040;SDS011;7095;51.388;6.196;2022-10-24T06:05:19;11.00;;;2.50;;
14040;SDS011;7095;51.388;6.196;2022-10-24T06:07:47;11.13;;;2.27;;
14040;SDS011;7095;51.388;6.196;2022-10-24T06:10:16;9.07;;;2.17;;
14040;SDS011;7095;51.388;6.196;2022-10-24T06:12:45;6.00;;;2.23;;
14040;SDS011;7095;51.388;6.196;2022-10-24T06:15:14;10.10;;;2.20;;
14040;SDS011;7095;51.388;6.196;2022-10-24T06:17:42;7.83;;;2.57;;
14040;SDS011;7095;51.388;6.196;2022-10-24T06:20:10;12.43;;;2.50;;
14040;SDS011;7095;51.388;6.196;2022-10-24T06:22:40;4.83;;;2.57;;
14040;SDS011;7095;51.388;6.196;2022-10-24T06:25:11;9.87;;;1.83;;
14040;SDS011;7095;51.388;6.196;2022-10-24T06:27:40;11.37;;;2.23;;
14040;SDS011;7095;51.388;6.196;2022-10-24T06:30:09;7.77;;;1.80;;
14040;SDS011;7095;51.388;6.196;2022-10-24T06:32:38;6.40;;;1.80;;
14040;SDS011;7095;51.388;6.196;2022-10-24T06:35:10;9.23;;;2.17;;
14040;SDS011;7095;51.388;6.196;2022-10-24T06:37:41;7.47;;;1.80;;
14040;SDS011;7095;51.388;6.196;2022-10-24T06:40:14;8.47;;;1.83;;
14040;SDS011;7095;51.388;6.196;2022-10-24T06:42:43;9.97;;;2.03;;
14040;SDS011;7095;51.388;6.196;2022-10-24T06:45:12;6.00;;;2.10;;
14040;SDS011;7095;51.388;6.196;2022-10-24T06:47:41;6.27;;;2.20;;
14040;SDS011;7095;51.388;6.196;2022-10-24T06:50:10;9.40;;;2.30;;
14040;SDS011;7095;51.388;6.196;2022-10-24T06:52:39;10.23;;;2.30;;
14040;SDS011;7095;51.388;6.196;2022-10-24T06:55:09;7.40;;;2.17;;
14040;SDS011;7095;51.388;6.196;2022-10-24T06:57:38;7.27;;;1.93;;
14040;SDS011;7095;51.388;6.196;2022-10-24T07:00:06;9.13;;;2.13;;
14040;SDS011;7095;51.388;6.196;2022-10-24T07:02:35;9.40;;;2.53;;
14040;SDS011;7095;51.388;6.196;2022-10-24T07:05:04;8.47;;;2.30;;
14040;SDS011;7095;51.388;6.196;2022-10-24T07:07:35;8.50;;;2.17;;
14040;SDS011;7095;51.388;6.196;2022-10-24T07:10:04;7.73;;;2.30;;
14040;SDS011;7095;51.388;6.196;2022-10-24T07:12:34;5.60;;;1.97;;
14040;SDS011;7095;51.388;6.196;2022-10-24T07:15:03;8.30;;;1.70;;
14040;SDS011;7095;51.388;6.196;2022-10-24T07:17:37;5.77;;;1.77;;
14040;SDS011;7095;51.388;6.196;2022-10-24T07:20:06;11.20;;;2.70;;
14040;SDS011;7095;51.388;6.196;2022-10-24T07:22:36;7.63;;;1.93;;
14040;SDS011;7095;51.388;6.196;2022-10-24T07:25:05;9.27;;;2.30;;
14040;SDS011;7095;51.388;6.196;2022-10-24T07:27:36;8.40;;;2.10;;
14040;SDS011;7095;51.388;6.196;2022-10-24T07:30:07;9.33;;;2.40;;
14040;SDS011;7095;51.388;6.196;2022-10-24T07:32:36;5.93;;;1.90;;
14040;SDS011;7095;51.388;6.196;2022-10-24T07:35:05;6.50;;;1.73;;
14040;SDS011;7095;51.388;6.196;2022-10-24T07:37:36;7.90;;;2.30;;
14040;SDS011;7095;51.388;6.196;2022-10-24T07:40:05;10.47;;;2.17;;
14040;SDS011;7095;51.388;6.196;2022-10-24T07:42:35;14.10;;;3.30;;
14040;SDS011;7095;51.388;6.196;2022-10-24T07:45:04;6.13;;;1.80;;
14040;SDS011;7095;51.388;6.196;2022-10-24T07:47:33;10.73;;;2.00;;
14040;SDS011;7095;51.388;6.196;2022-10-24T07:50:02;12.50;;;2.40;;
14040;SDS011;7095;51.388;6.196;2022-10-24T07:52:32;8.43;;;2.53;;
14040;SDS011;7095;51.388;6.196;2022-10-24T07:55:00;11.87;;;2.60;;
14040;SDS011;7095;51.388;6.196;2022-10-24T07:57:29;8.90;;;2.53;;
14040;SDS011;7095;51.388;6.196;2022-10-24T07:59:59;12.03;;;2.60;;
14040;SDS011;7095;51.388;6.196;2022-10-24T08:02:37;7.50;;;1.97;;
14040;SDS011;7095;51.388;6.196;2022-10-24T08:05:07;11.97;;;2.40;;
14040;SDS011;7095;51.388;6.196;2022-10-24T08:07:37;8.27;;;2.37;;
14040;SDS011;7095;51.388;6.196;2022-10-24T08:10:06;10.37;;;2.37;;
14040;SDS011;7095;51.388;6.196;2022-10-24T08:12:38;9.30;;;2.10;;
14040;SDS011;7095;51.388;6.196;2022-10-24T08:17:06;12.53;;;2.40;;
14040;SDS011;7095;51.388;6.196;2022-10-24T08:19:36;10.97;;;2.40;;
14040;SDS011;7095;51.388;6.196;2022-10-24T08:22:10;12.53;;;3.03;;
14040;SDS011;7095;51.388;6.196;2022-10-24T08:24:41;11.73;;;3.00;;
14040;SDS011;7095;51.388;6.196;2022-10-24T08:27:09;10.33;;;2.67;;
14040;SDS011;7095;51.388;6.196;2022-10-24T08:29:38;5.30;;;2.17;;
14040;SDS011;7095;51.388;6.196;2022-10-24T08:32:08;10.13;;;2.50;;
14040;SDS011;7095;51.388;6.196;2022-10-24T08:34:37;11.23;;;2.53;;
14040;SDS011;7095;51.388;6.196;2022-10-24T08:37:05;11.73;;;2.43;;
14040;SDS011;7095;51.388;6.196;2022-10-24T08:39:34;11.43;;;3.10;;
14040;SDS011;7095;51.388;6.196;2022-10-24T08:42:03;15.17;;;3.23;;
14040;SDS011;7095;51.388;6.196;2022-10-24T08:44:35;15.77;;;3.60;;
14040;SDS011;7095;51.388;6.196;2022-10-24T08:47:06;9.33;;;2.23;;
14040;SDS011;7095;51.388;6.196;2022-10-24T08:49:47;11.83;;;2.53;;
14040;SDS011;7095;51.388;6.196;2022-10-24T08:52:22;16.20;;;2.90;;
14040;SDS011;7095;51.388;6.196;2022-10-24T08:54:55;10.17;;;2.80;;
14040;SDS011;7095;51.388;6.196;2022-10-24T08:57:32;12.93;;;3.40;;
14040;SDS011;7095;51.388;6.196;2022-10-24T09:00:03;12.10;;;3.00;;
14040;SDS011;7095;51.388;6.196;2022-10-24T09:02:41;8.87;;;2.50;;
14040;SDS011;7095;51.388;6.196;2022-10-24T09:05:16;9.60;;;2.40;;
14040;SDS011;7095;51.388;6.196;2022-10-24T09:07:51;11.33;;;2.37;;
14040;SDS011;7095;51.388;6.196;2022-10-24T09:10:30;10.87;;;2.60;;
14040;SDS011;7095;51.388;6.196;2022-10-24T09:13:08;10.93;;;2.93;;
14040;SDS011;7095;51.388;6.196;2022-10-24T09:15:40;13.63;;;2.87;;
14040;SDS011;7095;51.388;6.196;2022-10-24T09:18:15;9.03;;;2.60;;
14040;SDS011;7095;51.388;6.196;2022-10-24T09:20:48;11.00;;;2.37;;
14040;SDS011;7095;51.388;6.196;2022-10-24T09:23:19;12.97;;;2.07;;
14040;SDS011;7095;51.388;6.196;2022-10-24T09:25:51;14.20;;;2.77;;
14040;SDS011;7095;51.388;6.196;2022-10-24T09:28:21;12.70;;;3.17;;
14040;SDS011;7095;51.388;6.196;2022-10-24T09:30:51;15.63;;;3.03;;
14040;SDS011;7095;51.388;6.196;2022-10-24T09:33:23;10.93;;;2.00;;
14040;SDS011;7095;51.388;6.196;2022-10-24T09:35:55;11.50;;;2.33;;
14040;SDS011;7095;51.388;6.196;2022-10-24T09:38:28;12.67;;;2.87;;
14040;SDS011;7095;51.388;6.196;2022-10-24T09:41:00;9.73;;;2.17;;
14040;SDS011;7095;51.388;6.196;2022-10-24T09:43:32;12.83;;;2.67;;
14040;SDS011;7095;51.388;6.196;2022-10-24T09:46:06;12.10;;;2.30;;
14040;SDS011;7095;51.388;6.196;2022-10-24T09:51:25;11.70;;;3.00;;
14040;SDS011;7095;51.388;6.196;2022-10-24T09:53:59;11.17;;;3.47;;
14040;SDS011;7095;51.388;6.196;2022-10-24T09:56:32;10.07;;;2.40;;
14040;SDS011;7095;51.388;6.196;2022-10-24T09:59:18;11.00;;;2.57;;
14040;SDS011;7095;51.388;6.196;2022-10-24T10:02:07;9.97;;;2.40;;
14040;SDS011;7095;51.388;6.196;2022-10-24T10:04:47;10.63;;;2.93;;
14040;SDS011;7095;51.388;6.196;2022-10-24T10:07:24;16.63;;;3.30;;
14040;SDS011;7095;51.388;6.196;2022-10-24T10:09:55;19.73;;;3.53;;
14040;SDS011;7095;51.388;6.196;2022-10-24T10:12:26;14.63;;;2.83;;
14040;SDS011;7095;51.388;6.196;2022-10-24T10:14:58;13.67;;;2.57;;
14040;SDS011;7095;51.388;6.196;2022-10-24T10:17:29;13.37;;;2.80;;
14040;SDS011;7095;51.388;6.196;2022-10-24T10:20:00;14.20;;;3.10;;
14040;SDS011;7095;51.388;6.196;2022-10-24T10:22:30;10.80;;;2.57;;
14040;SDS011;7095;51.388;6.196;2022-10-24T10:24:59;12.70;;;2.87;;
14040;SDS011;7095;51.388;6.196;2022-10-24T10:27:30;12.30;;;2.50;;
14040;SDS011;7095;51.388;6.196;2022-10-24T10:32:56;14.63;;;2.90;;
14040;SDS011;7095;51.388;6.196;2022-10-24T10:35:39;13.20;;;2.53;;
14040;SDS011;7095;51.388;6.196;2022-10-24T10:38:18;15.43;;;2.53;;
14040;SDS011;7095;51.388;6.196;2022-10-24T10:41:05;14.90;;;3.23;;
14040;SDS011;7095;51.388;6.196;2022-10-24T10:43:40;12.67;;;3.57;;
14040;SDS011;7095;51.388;6.196;2022-10-24T10:46:16;10.50;;;3.03;;
14040;SDS011;7095;51.388;6.196;2022-10-24T10:48:54;11.13;;;3.03;;
14040;SDS011;7095;51.388;6.196;2022-10-24T10:51:34;15.00;;;3.90;;
14040;SDS011;7095;51.388;6.196;2022-10-24T10:54:11;14.33;;;2.40;;
14040;SDS011;7095;51.388;6.196;2022-10-24T10:56:56;12.50;;;2.57;;
14040;SDS011;7095;51.388;6.196;2022-10-24T10:59:32;8.13;;;2.60;;
14040;SDS011;7095;51.388;6.196;2022-10-24T11:02:16;10.43;;;3.00;;
14040;SDS011;7095;51.388;6.196;2022-10-24T11:05:04;10.50;;;2.20;;
14040;SDS011;7095;51.388;6.196;2022-10-24T11:07:47;18.37;;;2.97;;
14040;SDS011;7095;51.388;6.196;2022-10-24T11:10:21;8.57;;;2.27;;
14040;SDS011;7095;51.388;6.196;2022-10-24T11:12:54;8.77;;;2.60;;
14040;SDS011;7095;51.388;6.196;2022-10-24T11:15:26;14.37;;;2.97;;
14040;SDS011;7095;51.388;6.196;2022-10-24T11:17:58;12.20;;;3.03;;
14040;SDS011;7095;51.388;6.196;2022-10-24T11:20:34;13.40;;;2.90;;
14040;SDS011;7095;51.388;6.196;2022-10-24T11:23:11;10.17;;;3.00;;
14040;SDS011;7095;51.388;6.196;2022-10-24T11:25:45;10.23;;;3.00;;
14040;SDS011;7095;51.388;6.196;2022-10-24T11:28:18;14.97;;;2.97;;
14040;SDS011;7095;51.388;6.196;2022-10-24T11:30:53;13.30;;;2.60;;
14040;SDS011;7095;51.388;6.196;2022-10-24T11:33:28;10.27;;;2.50;;
14040;SDS011;7095;51.388;6.196;2022-10-24T11:36:07;11.83;;;2.87;;
14040;SDS011;7095;51.388;6.196;2022-10-24T11:38:43;13.80;;;3.10;;
14040;SDS011;7095;51.388;6.196;2022-10-24T11:41:25;13.10;;;3.20;;
14040;SDS011;7095;51.388;6.196;2022-10-24T11:44:00;19.27;;;4.40;;
14040;SDS011;7095;51.388;6.196;2022-10-24T11:46:34;12.43;;;3.07;;
14040;SDS011;7095;51.388;6.196;2022-10-24T11:49:10;10.53;;;3.03;;
14040;SDS011;7095;51.388;6.196;2022-10-24T11:51:49;13.63;;;2.97;;
14040;SDS011;7095;51.388;6.196;2022-10-24T11:54:24;10.73;;;2.70;;
14040;SDS011;7095;51.388;6.196;2022-10-24T11:56:57;9.87;;;2.43;;
14040;SDS011;7095;51.388;6.196;2022-10-24T11:59:29;11.23;;;2.77;;
14040;SDS011;7095;51.388;6.196;2022-10-24T12:05:10;14.80;;;3.83;;
14040;SDS011;7095;51.388;6.196;2022-10-24T12:08:20;12.03;;;3.03;;
14040;SDS011;7095;51.388;6.196;2022-10-24T12:11:07;10.47;;;2.70;;
14040;SDS011;7095;51.388;6.196;2022-10-24T12:13:49;13.13;;;3.17;;
14040;SDS011;7095;51.388;6.196;2022-10-24T12:16:32;22.37;;;3.63;;
14040;SDS011;7095;51.388;6.196;2022-10-24T12:19:12;10.47;;;2.67;;
14040;SDS011;7095;51.388;6.196;2022-10-24T12:21:43;12.67;;;3.20;;
14040;SDS011;7095;51.388;6.196;2022-10-24T12:24:22;9.57;;;3.00;;
14040;SDS011;7095;51.388;6.196;2022-10-24T12:26:57;15.47;;;3.50;;
14040;SDS011;7095;51.388;6.196;2022-10-24T12:29:29;18.33;;;2.90;;
14040;SDS011;7095;51.388;6.196;2022-10-24T12:32:20;13.17;;;3.40;;
14040;SDS011;7095;51.388;6.196;2022-10-24T12:34:55;11.17;;;2.83;;
14040;SDS011;7095;51.388;6.196;2022-10-24T12:37:45;12.50;;;3.10;;
14040;SDS011;7095;51.388;6.196;2022-10-24T12:43:28;13.37;;;2.63;;
14040;SDS011;7095;51.388;6.196;2022-10-24T12:45:59;10.87;;;2.63;;
14040;SDS011;7095;51.388;6.196;2022-10-24T12:51:50;14.63;;;3.27;;
14040;SDS011;7095;51.388;6.196;2022-10-24T12:54:18;14.80;;;3.23;;
14040;SDS011;7095;51.388;6.196;2022-10-24T12:57:22;12.37;;;2.80;;
14040;SDS011;7095;51.388;6.196;2022-10-24T12:59:55;12.23;;;2.63;;
14040;SDS011;7095;51.388;6.196;2022-10-24T13:02:39;13.13;;;2.97;;
14040;SDS011;7095;51.388;6.196;2022-10-24T13:05:24;16.37;;;3.17;;
14040;SDS011;7095;51.388;6.196;2022-10-24T13:08:07;12.40;;;2.70;;
14040;SDS011;7095;51.388;6.196;2022-10-24T13:10:55;13.53;;;2.40;;
14040;SDS011;7095;51.388;6.196;2022-10-24T13:13:45;8.53;;;2.27;;
14040;SDS011;7095;51.388;6.196;2022-10-24T13:16:29;13.70;;;2.93;;
14040;SDS011;7095;51.388;6.196;2022-10-24T13:19:11;12.00;;;2.23;;
14040;SDS011;7095;51.388;6.196;2022-10-24T13:21:45;16.57;;;3.07;;
14040;SDS011;7095;51.388;6.196;2022-10-24T13:24:23;13.73;;;2.97;;
14040;SDS011;7095;51.388;6.196;2022-10-24T13:30:16;11.90;;;2.33;;
14040;SDS011;7095;51.388;6.196;2022-10-24T13:35:54;21.70;;;3.33;;
14040;SDS011;7095;51.388;6.196;2022-10-24T13:38:27;15.30;;;3.17;;
14040;SDS011;7095;51.388;6.196;2022-10-24T13:40:58;13.10;;;2.97;;
14040;SDS011;7095;51.388;6.196;2022-10-24T13:43:26;17.07;;;2.93;;
14040;SDS011;7095;51.388;6.196;2022-10-24T13:45:56;10.13;;;2.67;;
14040;SDS011;7095;51.388;6.196;2022-10-24T13:48:38;15.73;;;2.87;;
14040;SDS011;7095;51.388;6.196;2022-10-24T13:51:16;11.50;;;2.57;;
14040;SDS011;7095;51.388;6.196;2022-10-24T13:53:50;12.03;;;3.00;;
14040;SDS011;7095;51.388;6.196;2022-10-24T13:56:21;11.93;;;2.30;;
14040;SDS011;7095;51.388;6.196;2022-10-24T13:58:50;12.90;;;2.67;;
14040;SDS011;7095;51.388;6.196;2022-10-24T14:01:19;14.40;;;2.87;;
14040;SDS011;7095;51.388;6.196;2022-10-24T14:03:51;8.63;;;2.77;;
14040;SDS011;7095;51.388;6.196;2022-10-24T14:06:23;12.57;;;2.87;;
14040;SDS011;7095;51.388;6.196;2022-10-24T14:08:53;15.10;;;3.90;;
14040;SDS011;7095;51.388;6.196;2022-10-24T14:11:33;13.60;;;3.13;;
14040;SDS011;7095;51.388;6.196;2022-10-24T14:14:12;17.00;;;3.53;;
14040;SDS011;7095;51.388;6.196;2022-10-24T14:17:06;15.87;;;2.93;;
14040;SDS011;7095;51.388;6.196;2022-10-24T14:19:50;10.70;;;2.63;;
14040;SDS011;7095;51.388;6.196;2022-10-24T14:22:24;14.70;;;3.17;;
14040;SDS011;7095;51.388;6.196;2022-10-24T14:24:55;13.93;;;3.13;;
14040;SDS011;7095;51.388;6.196;2022-10-24T14:27:24;11.57;;;2.63;;
14040;SDS011;7095;51.388;6.196;2022-10-24T14:29:57;12.53;;;2.20;;
14040;SDS011;7095;51.388;6.196;2022-10-24T14:32:30;9.17;;;2.17;;
14040;SDS011;7095;51.388;6.196;2022-10-24T14:34:59;9.80;;;2.67;;
14040;SDS011;7095;51.388;6.196;2022-10-24T14:37:33;13.83;;;3.10;;
14040;SDS011;7095;51.388;6.196;2022-10-24T14:40:04;14.77;;;2.87;;
14040;SDS011;7095;51.388;6.196;2022-10-24T14:42:42;11.70;;;2.73;;
14040;SDS011;7095;51.388;6.196;2022-10-24T14:45:22;14.40;;;2.87;;
14040;SDS011;7095;51.388;6.196;2022-10-24T14:47:53;11.43;;;2.93;;
14040;SDS011;7095;51.388;6.196;2022-10-24T14:50:32;14.30;;;2.93;;
14040;SDS011;7095;51.388;6.196;2022-10-24T14:53:04;11.93;;;2.23;;
14040;SDS011;7095;51.388;6.196;2022-10-24T14:55:33;8.97;;;2.83;;
14040;SDS011;7095;51.388;6.196;2022-10-24T14:58:03;16.57;;;3.10;;
14040;SDS011;7095;51.388;6.196;2022-10-24T15:00:34;8.40;;;2.70;;
14040;SDS011;7095;51.388;6.196;2022-10-24T15:03:08;9.73;;;2.73;;
14040;SDS011;7095;51.388;6.196;2022-10-24T15:05:39;10.57;;;2.57;;
14040;SDS011;7095;51.388;6.196;2022-10-24T15:08:32;9.10;;;2.30;;
14040;SDS011;7095;51.388;6.196;2022-10-24T15:11:04;8.77;;;2.80;;
14040;SDS011;7095;51.388;6.196;2022-10-24T15:13:46;15.17;;;2.83;;
14040;SDS011;7095;51.388;6.196;2022-10-24T15:16:33;14.13;;;2.60;;
14040;SDS011;7095;51.388;6.196;2022-10-24T15:19:04;9.67;;;2.80;;
14040;SDS011;7095;51.388;6.196;2022-10-24T15:21:34;10.47;;;2.30;;
14040;SDS011;7095;51.388;6.196;2022-10-24T15:24:15;14.37;;;2.80;;
14040;SDS011;7095;51.388;6.196;2022-10-24T15:26:48;10.80;;;2.67;;
14040;SDS011;7095;51.388;6.196;2022-10-24T15:29:19;14.00;;;3.67;;
14040;SDS011;7095;51.388;6.196;2022-10-24T15:31:50;13.23;;;2.80;;
14040;SDS011;7095;51.388;6.196;2022-10-24T15:34:20;12.60;;;3.30;;
14040;SDS011;7095;51.388;6.196;2022-10-24T15:36:50;8.07;;;3.10;;
14040;SDS011;7095;51.388;6.196;2022-10-24T15:39:24;13.03;;;3.00;;
14040;SDS011;7095;51.388;6.196;2022-10-24T15:41:53;10.23;;;2.70;;
14040;SDS011;7095;51.388;6.196;2022-10-24T15:44:23;10.17;;;2.30;;
14040;SDS011;7095;51.388;6.196;2022-10-24T15:46:59;8.00;;;2.73;;
14040;SDS011;7095;51.388;6.196;2022-10-24T15:49:28;12.30;;;2.57;;
14040;SDS011;7095;51.388;6.196;2022-10-24T15:51:57;10.60;;;3.23;;
14040;SDS011;7095;51.388;6.196;2022-10-24T15:54:27;8.90;;;2.57;;
14040;SDS011;7095;51.388;6.196;2022-10-24T15:56:56;10.40;;;2.30;;